createdAt,value
2022-11-10T00:00:59.742Z,1028.26
2022-11-10T00:01:59.741Z,1027.84
2022-11-10T00:02:59.748Z,1027.14
2022-11-10T00:03:59.798Z,1026.99
2022-11-10T00:04:59.749Z,1026.72
2022-11-10T00:05:59.751Z,1026.96
2022-11-10T00:06:59.843Z,1026.48
2022-11-10T00:07:59.756Z,1026.46
2022-11-10T00:08:59.778Z,1026.25
2022-11-10T00:09:59.758Z,1026.19
2022-11-10T00:10:59.769Z,1025.78
2022-11-10T00:11:59.759Z,1025.66
2022-11-10T00:12:59.761Z,1025.56
2022-11-10T00:13:59.784Z,1025.21
2022-11-10T00:14:59.764Z,1025.14
2022-11-10T00:15:59.768Z,1025.03
2022-11-10T00:16:59.766Z,1025.11
2022-11-10T00:17:59.770Z,1024.92
2022-11-10T00:18:59.800Z,1024.78
2022-11-10T00:19:59.771Z,1024.77
2022-11-10T00:20:59.777Z,1024.94
2022-11-10T00:21:59.782Z,1024.62
2022-11-10T00:22:59.802Z,1024.79
2022-11-10T00:23:59.799Z,1024.44
2022-11-10T00:24:59.780Z,1024.02
2022-11-10T00:25:59.781Z,1023.7
2022-11-10T00:26:59.785Z,1023.58
2022-11-10T00:27:59.787Z,1023.32
2022-11-10T00:28:59.819Z,1022.89
2022-11-10T00:29:59.788Z,1022.46
2022-11-10T00:30:59.791Z,1022.68
2022-11-10T00:31:59.798Z,1022.43
2022-11-10T00:32:59.794Z,1022.11
2022-11-10T00:33:59.821Z,1021.86
2022-11-10T00:34:59.801Z,1021.52
2022-11-10T00:35:59.802Z,1021.32
2022-11-10T00:36:59.801Z,1020.85
2022-11-10T00:37:59.805Z,1021.12
2022-11-10T00:38:59.858Z,1020.71
2022-11-10T00:39:59.805Z,1020.63
2022-11-10T00:40:59.814Z,1020.19
2022-11-10T00:41:59.809Z,1019.78
2022-11-10T00:42:59.811Z,1019.38
2022-11-10T00:43:59.833Z,1019.08
2022-11-10T00:44:59.814Z,1018.72
2022-11-10T00:45:59.819Z,1018.4
2022-11-10T00:46:59.821Z,1017.91
2022-11-10T00:47:59.822Z,1017.79
2022-11-10T00:48:59.896Z,1017.54
2022-11-10T00:49:59.845Z,1017.05
2022-11-10T00:50:59.827Z,1017.21
2022-11-10T00:51:59.823Z,1016.78
2022-11-10T00:52:59.827Z,1016.21
2022-11-10T00:53:59.854Z,1016.34
2022-11-10T00:54:59.859Z,1015.87
2022-11-10T00:55:59.831Z,1015.82
2022-11-10T00:56:59.836Z,1015.56
2022-11-10T00:57:59.837Z,1015.46
2022-11-10T00:58:59.863Z,1015.2
2022-11-10T00:59:59.841Z,1014.88
2022-11-10T01:00:59.894Z,1014.98
2022-11-10T01:02:00.041Z,1014.65
2022-11-10T01:02:59.842Z,1014.43
2022-11-10T01:03:59.867Z,1014.18
2022-11-10T01:04:59.848Z,1013.8
2022-11-10T01:05:59.848Z,1013.62
2022-11-10T01:06:59.935Z,1013.29
2022-11-10T01:07:59.854Z,1013.17
2022-11-10T01:08:59.884Z,1013.32
2022-11-10T01:09:59.857Z,1012.86
2022-11-10T01:10:59.883Z,1012.53
2022-11-10T01:11:59.863Z,1012.41
2022-11-10T01:13:02.658Z,1012.05
2022-11-10T01:13:59.890Z,1011.81
2022-11-10T01:14:59.865Z,1011.54
2022-11-10T01:15:59.866Z,1010.91
2022-11-10T01:16:59.869Z,1010.17
2022-11-10T01:17:59.867Z,1009.61
2022-11-10T01:18:59.896Z,1009.25
2022-11-10T01:19:59.872Z,1009.27
2022-11-10T01:20:59.874Z,1008.37
2022-11-10T01:21:59.880Z,1008.38
2022-11-10T01:22:59.876Z,1007.9
2022-11-10T01:24:01.167Z,1007.79
2022-11-10T01:24:59.885Z,1007.32
2022-11-10T01:25:59.886Z,1006.97
2022-11-10T01:26:59.910Z,1006.5
2022-11-10T01:27:59.882Z,1005.95
2022-11-10T01:28:59.890Z,1005.81
2022-11-10T01:29:59.895Z,1005.08
2022-11-10T01:30:59.889Z,1004.32
2022-11-10T01:31:59.891Z,1003.78
2022-11-10T01:32:59.912Z,1003.02
2022-11-10T01:33:59.898Z,1002.3
2022-11-10T01:35:02.666Z,1001.65
2022-11-10T01:35:59.896Z,1001.42
2022-11-10T01:36:59.899Z,1000.31
2022-11-10T01:37:59.903Z,999.68
2022-11-10T01:38:59.904Z,999.04
2022-11-10T01:39:59.988Z,998.3
2022-11-10T01:40:59.906Z,997
2022-11-10T01:41:59.907Z,996.01
2022-11-10T01:42:59.937Z,994.75
2022-11-10T01:43:59.911Z,993.22
2022-11-10T01:44:59.915Z,992.37
2022-11-10T01:46:02.934Z,990.95
2022-11-10T01:46:59.915Z,989.5
2022-11-10T01:47:59.918Z,988.32
2022-11-10T01:48:59.935Z,987.48
2022-11-10T01:49:59.923Z,986.21
2022-11-10T01:50:59.920Z,985.11
2022-11-10T01:51:59.939Z,984.08
2022-11-10T01:52:59.930Z,982.72
2022-11-10T01:53:59.928Z,981.63
2022-11-10T01:54:59.930Z,981.13
2022-11-10T01:55:59.936Z,980.28
2022-11-10T01:57:59.936Z,978.93
2022-11-10T01:58:59.965Z,978.59
2022-11-10T01:59:59.936Z,978.42
2022-11-10T02:00:59.965Z,977.92
2022-11-10T02:02:00.328Z,977.34
2022-11-10T02:02:59.943Z,977.22
2022-11-10T02:03:59.948Z,976.06
2022-11-10T02:04:59.945Z,975.97
2022-11-10T02:05:59.950Z,975.92
2022-11-10T02:07:00.004Z,975.4
2022-11-10T02:07:59.949Z,974.96
2022-11-10T02:08:59.950Z,974.87
2022-11-10T02:09:59.956Z,974.92
2022-11-10T02:10:59.956Z,974.76
2022-11-10T02:11:59.957Z,974.53
2022-11-10T02:12:59.960Z,974.3
2022-11-10T02:13:59.960Z,974.63
2022-11-10T02:14:59.983Z,974.04
2022-11-10T02:15:59.964Z,974.1
2022-11-10T02:16:59.966Z,974.21
2022-11-10T02:17:59.968Z,973.96
2022-11-10T02:18:59.975Z,973.94
2022-11-10T02:19:59.971Z,973.55
2022-11-10T02:20:59.969Z,973.07
2022-11-10T02:21:59.971Z,972.72
2022-11-10T02:22:59.977Z,972.51
2022-11-10T02:23:59.982Z,972.19
2022-11-10T02:24:59.978Z,971.81
2022-11-10T02:25:59.982Z,971.12
2022-11-10T02:26:59.988Z,970.4
2022-11-10T02:27:59.983Z,969.88
2022-11-10T02:28:59.984Z,969.68
2022-11-10T02:29:59.983Z,969.13
2022-11-10T02:31:00.011Z,967.99
2022-11-10T02:31:59.994Z,967.33
2022-11-10T02:32:59.989Z,967.14
2022-11-10T02:33:59.993Z,966.49
2022-11-10T02:34:59.998Z,966.23
2022-11-10T02:35:59.995Z,966.03
2022-11-10T02:36:59.997Z,965.47
2022-11-10T02:38:00.005Z,964.46
2022-11-10T02:39:00.007Z,964.14
2022-11-10T02:40:00.003Z,963.08
2022-11-10T02:41:00.001Z,961.25
2022-11-10T02:42:00.006Z,959.7
2022-11-10T02:43:00.004Z,958.79
2022-11-10T02:44:00.009Z,958.12
2022-11-10T02:45:00.013Z,957.46
2022-11-10T02:46:00.022Z,956.83
2022-11-10T02:47:00.035Z,956.49
2022-11-10T02:48:00.017Z,956.26
2022-11-10T02:49:00.021Z,955.71
2022-11-10T02:50:00.016Z,955.16
2022-11-10T02:51:00.028Z,955.16
2022-11-10T02:52:00.027Z,954.3
2022-11-10T02:53:00.020Z,953.67
2022-11-10T02:54:00.027Z,952.94
2022-11-10T02:55:00.026Z,952.3
2022-11-10T02:56:00.049Z,951.11
2022-11-10T02:57:00.031Z,950.32
2022-11-10T02:58:00.033Z,949.51
2022-11-10T02:59:00.037Z,948.4
2022-11-10T03:00:00.033Z,946.97
2022-11-10T03:01:00.118Z,946.36
2022-11-10T03:02:00.037Z,944.79
2022-11-10T03:03:00.063Z,944.25
2022-11-10T03:04:00.046Z,943.21
2022-11-10T03:05:00.042Z,941.85
2022-11-10T03:06:00.044Z,940.65
2022-11-10T03:07:00.141Z,940.11
2022-11-10T03:08:00.047Z,939.66
2022-11-10T03:09:00.048Z,939.5
2022-11-10T03:10:00.054Z,939.04
2022-11-10T03:11:00.057Z,939.11
2022-11-10T03:12:00.052Z,938.57
2022-11-10T03:13:00.107Z,938.37
2022-11-10T03:14:01.744Z,937.94
2022-11-10T03:15:00.059Z,937.66
2022-11-10T03:16:00.078Z,937.78
2022-11-10T03:17:00.074Z,937.29
2022-11-10T03:18:00.076Z,937.19
2022-11-10T03:19:00.100Z,936.61
2022-11-10T03:20:00.068Z,936.54
2022-11-10T03:21:00.081Z,936.39
2022-11-10T03:22:00.081Z,936.49
2022-11-10T03:23:00.083Z,936.51
2022-11-10T03:24:00.088Z,936.07
2022-11-10T03:25:00.088Z,935.35
2022-11-10T03:26:00.084Z,934.69
2022-11-10T03:27:00.090Z,933.55
2022-11-10T03:28:00.081Z,933.36
2022-11-10T03:29:00.144Z,932.58
2022-11-10T03:30:00.112Z,931.78
2022-11-10T03:31:00.099Z,930.54
2022-11-10T03:32:00.084Z,929.88
2022-11-10T03:33:00.092Z,928.75
2022-11-10T03:34:00.090Z,926.99
2022-11-10T03:35:00.130Z,925.91
2022-11-10T03:36:00.098Z,924.9
2022-11-10T03:37:00.105Z,923.95
2022-11-10T03:38:00.092Z,922.78
2022-11-10T03:39:00.102Z,921.76
2022-11-10T03:40:03.187Z,920.66
2022-11-10T03:42:00.106Z,919.29
2022-11-10T03:43:00.104Z,918.6
2022-11-10T03:44:00.105Z,918.02
2022-11-10T03:45:00.106Z,916.9
2022-11-10T03:46:00.110Z,916.02
2022-11-10T03:47:00.118Z,915.56
2022-11-10T03:48:00.111Z,914.94
2022-11-10T03:49:00.112Z,914.21
2022-11-10T03:50:00.136Z,913.52
2022-11-10T03:51:01.410Z,912.84
2022-11-10T03:52:00.120Z,912.64
2022-11-10T03:53:00.121Z,912.42
2022-11-10T03:54:00.118Z,912.33
2022-11-10T03:55:03.236Z,913.13
2022-11-10T03:56:00.122Z,912.91
2022-11-10T03:57:00.127Z,913.48
2022-11-10T03:58:00.128Z,913.73
2022-11-10T03:59:00.130Z,914.18
2022-11-10T04:00:00.138Z,914.88
2022-11-10T04:01:00.131Z,915.01
2022-11-10T04:02:03.308Z,916.09
2022-11-10T04:03:00.136Z,916.17
2022-11-10T04:04:00.135Z,917.07
2022-11-10T04:05:00.147Z,917.84
2022-11-10T04:06:00.139Z,918.27
2022-11-10T04:07:00.230Z,919.14
2022-11-10T04:08:00.141Z,919.16
2022-11-10T04:09:00.147Z,919.47
2022-11-10T04:10:00.151Z,920.24
2022-11-10T04:11:00.147Z,920.21
2022-11-10T04:12:00.154Z,920.28
2022-11-10T04:13:03.181Z,919.97
2022-11-10T04:14:00.152Z,919.5
2022-11-10T04:15:00.160Z,919.19
2022-11-10T04:16:00.164Z,917.4
2022-11-10T04:17:00.157Z,916.63
2022-11-10T04:18:00.157Z,915.95
2022-11-10T04:19:00.159Z,915.33
2022-11-10T04:20:00.160Z,914.76
2022-11-10T04:21:00.165Z,914.2
2022-11-10T04:22:00.163Z,914.34
2022-11-10T04:23:00.191Z,913.87
2022-11-10T04:24:03.193Z,913.3
2022-11-10T04:25:00.167Z,912.42
2022-11-10T04:26:00.172Z,911.7
2022-11-10T04:27:00.173Z,910.73
2022-11-10T04:28:00.173Z,909.26
2022-11-10T04:29:00.182Z,908.05
2022-11-10T04:30:00.176Z,906.39
2022-11-10T04:31:00.181Z,904.79
2022-11-10T04:32:00.181Z,903.47
2022-11-10T04:33:00.331Z,901.98
2022-11-10T04:34:00.187Z,900.72
2022-11-10T04:35:00.209Z,899.61
2022-11-10T04:36:00.189Z,898.75
2022-11-10T04:37:00.189Z,898.13
2022-11-10T04:38:00.189Z,897.25
2022-11-10T04:39:00.214Z,896.87
2022-11-10T04:40:00.280Z,896.41
2022-11-10T04:41:00.191Z,895.61
2022-11-10T04:42:02.620Z,894.84
2022-11-10T04:43:00.202Z,893.94
2022-11-10T04:44:00.199Z,893.62
2022-11-10T04:45:00.252Z,892.98
2022-11-10T04:46:00.201Z,891.75
2022-11-10T04:47:00.202Z,890.74
2022-11-10T04:48:00.208Z,889.05
2022-11-10T04:49:00.203Z,888.24
2022-11-10T04:50:00.238Z,886.95
2022-11-10T04:51:00.231Z,886.09
2022-11-10T04:52:00.275Z,885.03
2022-11-10T04:53:00.216Z,884.23
2022-11-10T04:54:00.211Z,882.95
2022-11-10T04:55:00.362Z,881.57
2022-11-10T04:56:00.220Z,880.7
2022-11-10T04:57:00.219Z,879.27
2022-11-10T04:58:00.220Z,877.61
2022-11-10T04:59:00.221Z,876.7
2022-11-10T05:00:00.224Z,875.6
2022-11-10T05:01:00.272Z,874.93
2022-11-10T05:02:00.229Z,874.02
2022-11-10T05:03:00.230Z,873.5
2022-11-10T05:04:00.231Z,872.21
2022-11-10T05:05:00.232Z,871.45
2022-11-10T05:06:00.239Z,870.54
2022-11-10T05:07:00.285Z,869.18
2022-11-10T05:08:00.239Z,868.42
2022-11-10T05:09:00.246Z,866.97
2022-11-10T05:10:00.237Z,866.74
2022-11-10T05:11:00.264Z,865.84
2022-11-10T05:12:00.275Z,865.64
2022-11-10T05:13:00.244Z,864.96
2022-11-10T05:14:00.246Z,865.15
2022-11-10T05:15:00.247Z,864.74
2022-11-10T05:16:00.251Z,864.47
2022-11-10T05:17:00.249Z,864.27
2022-11-10T05:18:00.249Z,864.7
2022-11-10T05:19:00.256Z,864.25
2022-11-10T05:20:00.254Z,864.69
2022-11-10T05:21:00.260Z,864.84
2022-11-10T05:22:00.257Z,864.21
2022-11-10T05:23:03.372Z,863.84
2022-11-10T05:24:00.258Z,863.56
2022-11-10T05:25:00.275Z,863.02
2022-11-10T05:26:00.267Z,862.61
2022-11-10T05:27:00.288Z,861.5
2022-11-10T05:28:00.269Z,860.53
2022-11-10T05:29:00.265Z,859.19
2022-11-10T05:30:00.266Z,858.18
2022-11-10T05:31:00.273Z,856.94
2022-11-10T05:32:00.279Z,856.56
2022-11-10T05:33:00.277Z,855.07
2022-11-10T05:34:00.288Z,854.65
2022-11-10T05:35:00.277Z,853.7
2022-11-10T05:36:00.278Z,853.4
2022-11-10T05:37:00.279Z,852.33
2022-11-10T05:38:00.292Z,851.79
2022-11-10T05:39:00.279Z,850.82
2022-11-10T05:40:00.290Z,850.32
2022-11-10T05:41:00.299Z,850.12
2022-11-10T05:42:00.286Z,849.24
2022-11-10T05:43:00.333Z,849.02
2022-11-10T05:44:00.287Z,849.04
2022-11-10T05:45:00.294Z,848.2
2022-11-10T05:46:00.296Z,847.21
2022-11-10T05:47:00.295Z,846.82
2022-11-10T05:48:00.316Z,846.02
2022-11-10T05:49:00.295Z,844.66
2022-11-10T05:50:00.303Z,843.72
2022-11-10T05:51:00.303Z,842.95
2022-11-10T05:52:00.298Z,842.81
2022-11-10T05:53:00.305Z,841.97
2022-11-10T05:54:00.304Z,841.7
2022-11-10T05:55:00.308Z,841.27
2022-11-10T05:56:00.439Z,841.31
2022-11-10T05:57:00.307Z,840.65
2022-11-10T05:58:00.310Z,840.28
2022-11-10T05:59:00.354Z,840.15
2022-11-10T06:00:00.309Z,839.66
2022-11-10T06:01:00.311Z,839.4
2022-11-10T06:02:00.338Z,839.24
2022-11-10T06:03:00.319Z,839.08
2022-11-10T06:04:00.372Z,838.98
2022-11-10T06:05:00.325Z,838.25
2022-11-10T06:06:00.329Z,838.26
2022-11-10T06:07:03.524Z,838.26
2022-11-10T06:08:00.332Z,837.72
2022-11-10T06:09:00.344Z,836.84
2022-11-10T06:10:00.326Z,836.71
2022-11-10T06:11:00.338Z,836.63
2022-11-10T06:12:00.328Z,836.37
2022-11-10T06:13:00.346Z,835.68
2022-11-10T06:14:00.340Z,835.02
2022-11-10T06:15:00.365Z,835.03
2022-11-10T06:16:00.349Z,834.17
2022-11-10T06:17:00.342Z,833.31
2022-11-10T06:18:01.437Z,833.05
2022-11-10T06:19:00.347Z,831.96
2022-11-10T06:20:00.347Z,831.86
2022-11-10T06:21:00.348Z,831.2
2022-11-10T06:22:03.744Z,830.85
2022-11-10T06:23:00.352Z,831.32
2022-11-10T06:24:00.354Z,830.47
2022-11-10T06:25:00.352Z,830.54
2022-11-10T06:26:00.358Z,830.48
2022-11-10T06:27:00.353Z,830.25
2022-11-10T06:28:00.354Z,829.72
2022-11-10T06:29:03.131Z,829.47
2022-11-10T06:30:00.357Z,828.35
2022-11-10T06:31:00.380Z,827.88
2022-11-10T06:32:00.361Z,827.3
2022-11-10T06:33:00.393Z,826.17
2022-11-10T06:34:00.362Z,825.28
2022-11-10T06:35:00.908Z,825.17
2022-11-10T06:36:00.368Z,824.96
2022-11-10T06:37:00.362Z,824.21
2022-11-10T06:38:00.367Z,824.46
2022-11-10T06:39:00.371Z,823.64
2022-11-10T06:40:03.385Z,822.65
2022-11-10T06:41:00.379Z,822.85
2022-11-10T06:42:00.370Z,822.9
2022-11-10T06:43:00.396Z,823.01
2022-11-10T06:44:00.415Z,823.49
2022-11-10T06:45:00.376Z,823.94
2022-11-10T06:46:00.377Z,824.45
2022-11-10T06:47:00.406Z,824.92
2022-11-10T06:48:00.381Z,825.55
2022-11-10T06:49:00.411Z,826.31
2022-11-10T06:50:00.387Z,828.22
2022-11-10T06:51:03.224Z,831.47
2022-11-10T06:52:00.383Z,836.36
2022-11-10T06:53:00.389Z,841.76
2022-11-10T06:54:00.395Z,845.76
2022-11-10T06:55:00.393Z,846.92
2022-11-10T06:56:00.388Z,846.72
2022-11-10T06:57:00.393Z,845.86
2022-11-10T06:58:00.396Z,846.34
2022-11-10T06:59:00.413Z,846.95
2022-11-10T07:00:00.400Z,851.07
2022-11-10T07:01:00.435Z,856.05
2022-11-10T07:02:00.402Z,860.79
2022-11-10T07:03:00.430Z,865.48
2022-11-10T07:04:18.476Z,869.05
2022-11-10T07:05:00.408Z,872.24
2022-11-10T07:06:00.408Z,874.64
2022-11-10T07:07:00.604Z,875.73
2022-11-10T07:08:00.411Z,875.67
2022-11-10T07:09:00.413Z,876.15
2022-11-10T07:10:04.221Z,875.62
2022-11-10T07:11:00.414Z,875.63
2022-11-10T07:12:00.417Z,874.99
2022-11-10T07:13:00.416Z,875.51
2022-11-10T07:14:00.421Z,875.07
2022-11-10T07:15:00.421Z,875.08
2022-11-10T07:16:00.424Z,877.58
2022-11-10T07:17:00.427Z,880.94
2022-11-10T07:18:00.426Z,888.31
2022-11-10T07:19:00.452Z,895.75
2022-11-10T07:20:00.433Z,903.78
2022-11-10T07:21:00.432Z,911.85
2022-11-10T07:22:00.558Z,919.64
2022-11-10T07:23:00.445Z,927.77
2022-11-10T07:24:00.438Z,936.15
2022-11-10T07:25:00.436Z,944.71
2022-11-10T07:26:00.440Z,953.65
2022-11-10T07:27:00.444Z,962.52
2022-11-10T07:28:00.447Z,970.97
2022-11-10T07:29:00.444Z,978.94
2022-11-10T07:30:00.449Z,987.25
2022-11-10T07:31:00.446Z,994.68
2022-11-10T07:32:00.446Z,1000.02
2022-11-10T07:33:00.601Z,1004.13
2022-11-10T07:34:00.449Z,1004.89
2022-11-10T07:35:00.478Z,1007.48
2022-11-10T07:36:00.451Z,1009.71
2022-11-10T07:37:00.456Z,1011.03
2022-11-10T07:38:00.459Z,1011.09
2022-11-10T07:39:00.463Z,1011.69
2022-11-10T07:40:00.465Z,1011.76
2022-11-10T07:41:00.464Z,1011.07
2022-11-10T07:42:00.465Z,1011.94
2022-11-10T07:43:00.467Z,1019.27
2022-11-10T07:44:00.469Z,1026.3
2022-11-10T07:45:00.470Z,1032.14
2022-11-10T07:46:00.476Z,1037.32
2022-11-10T07:47:00.474Z,1042.53
2022-11-10T07:48:00.474Z,1047.8
2022-11-10T07:49:00.475Z,1052.51
2022-11-10T07:50:00.532Z,1057.06
2022-11-10T07:51:00.529Z,1061.29
2022-11-10T07:52:00.479Z,1065.31
2022-11-10T07:53:00.488Z,1068.57
2022-11-10T07:54:00.486Z,1072.07
2022-11-10T07:55:00.486Z,1075.36
2022-11-10T07:56:00.509Z,1078.31
2022-11-10T07:57:00.487Z,1080.09
2022-11-10T07:58:00.493Z,1081.61
2022-11-10T07:59:00.492Z,1081.85
2022-11-10T08:00:00.496Z,1081.17
2022-11-10T08:01:00.519Z,1080.75
2022-11-10T08:02:00.547Z,1080.31
2022-11-10T08:03:00.543Z,1079.77
2022-11-10T08:04:00.501Z,1079.06
2022-11-10T08:05:00.635Z,1077.28
2022-11-10T08:06:00.527Z,1075.49
2022-11-10T08:07:00.625Z,1073.59
2022-11-10T08:08:00.508Z,1071.99
2022-11-10T08:09:00.509Z,1070.99
2022-11-10T08:10:00.537Z,1069.33
2022-11-10T08:11:00.535Z,1067.73
2022-11-10T08:12:00.524Z,1065.06
2022-11-10T08:13:00.521Z,1062.86
2022-11-10T08:14:00.517Z,1060.83
2022-11-10T08:15:00.518Z,1059.75
2022-11-10T08:16:00.543Z,1059.56
2022-11-10T08:17:00.527Z,1058.89
2022-11-10T08:18:00.526Z,1058.17
2022-11-10T08:19:00.534Z,1057.08
2022-11-10T08:20:00.529Z,1055.33
2022-11-10T08:21:00.555Z,1054.33
2022-11-10T08:22:00.530Z,1053.84
2022-11-10T08:23:00.560Z,1053.43
2022-11-10T08:24:00.531Z,1053.15
2022-11-10T08:25:00.535Z,1053.09
2022-11-10T08:26:00.566Z,1053.16
2022-11-10T08:27:00.538Z,1052.97
2022-11-10T08:28:00.541Z,1052.17
2022-11-10T08:29:00.542Z,1051.05
2022-11-10T08:30:00.543Z,1050.27
2022-11-10T08:31:05.277Z,1049.27
2022-11-10T08:32:00.549Z,1048.35
2022-11-10T08:33:00.550Z,1047.93
2022-11-10T08:34:03.590Z,1047.53
2022-11-10T08:35:00.553Z,1046.54
2022-11-10T08:36:00.580Z,1045.39
2022-11-10T08:37:00.560Z,1043.74
2022-11-10T08:38:02.999Z,1041.73
2022-11-10T08:39:00.583Z,1040.39
2022-11-10T08:40:00.560Z,1038.95
2022-11-10T08:41:00.586Z,1038.2
2022-11-10T08:42:00.564Z,1036.68
2022-11-10T08:43:00.571Z,1035.61
2022-11-10T08:44:00.567Z,1034.27
2022-11-10T08:45:03.586Z,1033.35
2022-11-10T08:46:00.596Z,1032.52
2022-11-10T08:47:00.572Z,1032.06
2022-11-10T08:48:00.573Z,1031.97
2022-11-10T08:49:00.577Z,1031.83
2022-11-10T08:50:00.577Z,1031.74
2022-11-10T08:51:00.600Z,1031.71
2022-11-10T08:52:00.588Z,1031.79
2022-11-10T08:53:00.586Z,1032.16
2022-11-10T08:54:00.585Z,1032.69
2022-11-10T08:55:00.609Z,1032.93
2022-11-10T08:56:02.416Z,1033.5
2022-11-10T08:57:00.592Z,1033.94
2022-11-10T08:58:00.592Z,1034.21
2022-11-10T08:59:00.593Z,1034.38
2022-11-10T09:00:00.592Z,1034.74
2022-11-10T09:01:00.614Z,1034.47
2022-11-10T09:02:00.666Z,1034.22
2022-11-10T09:03:00.633Z,1033.59
2022-11-10T09:04:00.603Z,1033.29
2022-11-10T09:05:00.617Z,1032.94
2022-11-10T09:06:00.602Z,1032.28
2022-11-10T09:07:03.772Z,1031.73
2022-11-10T09:08:00.608Z,1031.68
2022-11-10T09:09:00.610Z,1031.23
2022-11-10T09:10:06.981Z,1030.34
2022-11-10T09:11:00.638Z,1030.08
2022-11-10T09:12:00.617Z,1029.85
2022-11-10T09:13:00.615Z,1030.19
2022-11-10T09:14:00.633Z,1030.46
2022-11-10T09:15:00.621Z,1031.06
2022-11-10T09:16:00.622Z,1031.16
2022-11-10T09:17:00.625Z,1031.05
2022-11-10T09:18:03.376Z,1030.95
2022-11-10T09:19:00.627Z,1031.41
2022-11-10T09:20:00.717Z,1031.48
2022-11-10T09:21:00.639Z,1031.71
2022-11-10T09:22:00.633Z,1032.02
2022-11-10T09:23:00.631Z,1032.76
2022-11-10T09:24:00.634Z,1033.61
2022-11-10T09:25:00.636Z,1034.36
2022-11-10T09:26:00.637Z,1035.14
2022-11-10T09:27:00.662Z,1036.2
2022-11-10T09:28:00.643Z,1036.73
2022-11-10T09:29:00.646Z,1037
2022-11-10T09:30:00.656Z,1037.12
2022-11-10T09:31:00.655Z,1037.17
2022-11-10T09:32:00.655Z,1037.26
2022-11-10T09:33:00.689Z,1037.73
2022-11-10T09:34:00.662Z,1038.67
2022-11-10T09:35:00.683Z,1039.2
2022-11-10T09:36:00.655Z,1039.69
2022-11-10T09:37:00.656Z,1039.97
2022-11-10T09:38:00.656Z,1040.59
2022-11-10T09:39:00.659Z,1041.55
2022-11-10T09:40:01.487Z,1042.43
2022-11-10T09:41:00.685Z,1043.7
2022-11-10T09:42:00.670Z,1044.3
2022-11-10T09:43:00.688Z,1045.62
2022-11-10T09:44:00.668Z,1046.43
2022-11-10T09:45:00.669Z,1046.4
2022-11-10T09:46:00.670Z,1046.65
2022-11-10T09:47:00.673Z,1047.8
2022-11-10T09:48:00.671Z,1049.28
2022-11-10T09:49:00.762Z,1050.93
2022-11-10T09:50:00.679Z,1052.65
2022-11-10T09:51:00.706Z,1054.19
2022-11-10T09:52:00.682Z,1055.38
2022-11-10T09:53:00.687Z,1056.67
2022-11-10T09:54:00.709Z,1058.24
2022-11-10T09:55:00.687Z,1059.87
2022-11-10T09:56:00.691Z,1060.91
2022-11-10T09:57:00.688Z,1061.56
2022-11-10T09:58:00.694Z,1062.75
2022-11-10T09:59:00.723Z,1063.47
2022-11-10T10:00:00.818Z,1063.38
2022-11-10T10:01:00.801Z,1063.47
2022-11-10T10:02:00.700Z,1063.09
2022-11-10T10:03:00.712Z,1062.97
2022-11-10T10:04:00.697Z,1062.7
2022-11-10T10:05:00.705Z,1062.34
2022-11-10T10:06:00.777Z,1062.55
2022-11-10T10:07:16.036Z,1062.83
2022-11-10T10:08:00.794Z,1063.07
2022-11-10T10:09:00.710Z,1062.98
2022-11-10T10:10:00.710Z,1063.36
2022-11-10T10:11:00.714Z,1063.74
2022-11-10T10:12:00.712Z,1064.22
2022-11-10T10:13:00.722Z,1064.32
2022-11-10T10:14:00.719Z,1065.28
2022-11-10T10:15:00.766Z,1066.46
2022-11-10T10:16:00.725Z,1067.57
2022-11-10T10:17:00.722Z,1068.2
2022-11-10T10:18:00.721Z,1068.58
2022-11-10T10:19:00.731Z,1069.74
2022-11-10T10:20:00.726Z,1070.89
2022-11-10T10:21:00.733Z,1071.01
2022-11-10T10:22:00.730Z,1070.62
2022-11-10T10:23:00.734Z,1070.82
2022-11-10T10:24:11.280Z,1071.01
2022-11-10T10:25:00.737Z,1071.06
2022-11-10T10:26:00.761Z,1071.68
2022-11-10T10:27:00.742Z,1072.41
2022-11-10T10:28:00.740Z,1073.05
2022-11-10T10:29:00.744Z,1073.57
2022-11-10T10:30:00.746Z,1074.51
2022-11-10T10:31:00.773Z,1075.45
2022-11-10T10:32:00.752Z,1075.9
2022-11-10T10:33:00.784Z,1076.89
2022-11-10T10:34:00.753Z,1077.88
2022-11-10T10:35:00.754Z,1078.87
2022-11-10T10:36:00.782Z,1080.13
2022-11-10T10:37:00.751Z,1081.59
2022-11-10T10:38:00.756Z,1083.47
2022-11-10T10:39:00.759Z,1084.94
2022-11-10T10:40:00.761Z,1086.66
2022-11-10T10:41:00.775Z,1088.23
2022-11-10T10:42:00.763Z,1089.26
2022-11-10T10:43:00.763Z,1090.29
2022-11-10T10:44:00.767Z,1090.68
2022-11-10T10:45:00.808Z,1091.23
2022-11-10T10:46:00.769Z,1091.71
2022-11-10T10:47:00.796Z,1092.4
2022-11-10T10:48:00.775Z,1092.58
2022-11-10T10:49:22.505Z,1092.44
2022-11-10T10:50:00.787Z,1092.09
2022-11-10T10:51:00.779Z,1091.99
2022-11-10T10:52:00.779Z,1092.44
2022-11-10T10:53:00.784Z,1092.57
2022-11-10T10:54:00.788Z,1092.95
2022-11-10T10:55:00.791Z,1093.16
2022-11-10T10:56:00.796Z,1093.56
2022-11-10T10:57:00.811Z,1093.49
2022-11-10T10:58:00.795Z,1093.54
2022-11-10T10:59:00.792Z,1093.34
2022-11-10T11:00:00.798Z,1093.3
2022-11-10T11:01:03.728Z,1092.68
2022-11-10T11:02:00.847Z,1091.87
2022-11-10T11:03:04.378Z,1091.43
2022-11-10T11:04:00.802Z,1091.51
2022-11-10T11:05:00.806Z,1092.08
2022-11-10T11:06:00.801Z,1093.25
2022-11-10T11:07:00.845Z,1093.95
2022-11-10T11:08:00.814Z,1094.63
2022-11-10T11:09:00.846Z,1095.25
2022-11-10T11:10:00.818Z,1095.87
2022-11-10T11:11:00.812Z,1096
2022-11-10T11:12:01.912Z,1096.5
2022-11-10T11:13:00.817Z,1097.03
2022-11-10T11:14:00.822Z,1097.41
2022-11-10T11:15:00.836Z,1097.39
2022-11-10T11:16:00.821Z,1098.02
2022-11-10T11:17:00.869Z,1098.68
2022-11-10T11:18:00.826Z,1099.2
2022-11-10T11:19:00.861Z,1100.11
2022-11-10T11:20:00.833Z,1100.61
2022-11-10T11:21:00.841Z,1101.48
2022-11-10T11:22:00.847Z,1101.65
2022-11-10T11:23:03.604Z,1101.76
2022-11-10T11:24:00.833Z,1101.89
2022-11-10T11:25:00.854Z,1101.64
2022-11-10T11:26:00.849Z,1101.56
2022-11-10T11:27:00.842Z,1101.25
2022-11-10T11:28:00.852Z,1101.01
2022-11-10T11:29:00.872Z,1101.04
2022-11-10T11:30:00.850Z,1100.99
2022-11-10T11:31:00.865Z,1101.01
2022-11-10T11:32:00.864Z,1100.5
2022-11-10T11:33:00.849Z,1100.43
2022-11-10T11:34:03.893Z,1099.53
2022-11-10T11:35:00.858Z,1099.2
2022-11-10T11:36:00.860Z,1099.05
2022-11-10T11:37:04.096Z,1099.36
2022-11-10T11:38:00.861Z,1099.84
2022-11-10T11:39:00.861Z,1100.06
2022-11-10T11:40:00.867Z,1100.38
2022-11-10T11:41:00.868Z,1100.35
2022-11-10T11:42:00.865Z,1100.71
2022-11-10T11:43:00.868Z,1101.02
2022-11-10T11:44:00.871Z,1101.34
2022-11-10T11:45:00.871Z,1101.15
2022-11-10T11:46:00.874Z,1101.17
2022-11-10T11:47:00.880Z,1101.44
2022-11-10T11:48:00.876Z,1102.29
2022-11-10T11:49:00.879Z,1103.22
2022-11-10T11:50:00.906Z,1104.33
2022-11-10T11:51:00.887Z,1104.73
2022-11-10T11:52:03.935Z,1105.11
2022-11-10T11:53:00.882Z,1104.88
2022-11-10T11:54:00.889Z,1105.1
2022-11-10T11:55:00.887Z,1104.85
2022-11-10T11:56:00.934Z,1104.97
2022-11-10T11:57:00.890Z,1104.64
2022-11-10T11:58:00.892Z,1104.82
2022-11-10T11:59:00.895Z,1104.55
2022-11-10T12:00:00.893Z,1104.93
2022-11-10T12:01:00.898Z,1105.06
2022-11-10T12:02:00.952Z,1105.45
2022-11-10T12:03:00.978Z,1105.67
2022-11-10T12:04:00.904Z,1105.94
2022-11-10T12:05:00.901Z,1106.12
2022-11-10T12:06:00.932Z,1106.33
2022-11-10T12:07:01.050Z,1106.81
2022-11-10T12:08:00.916Z,1107.23
2022-11-10T12:09:00.908Z,1107.77
2022-11-10T12:10:00.916Z,1107.49
2022-11-10T12:11:00.928Z,1107.54
2022-11-10T12:12:00.944Z,1107.25
2022-11-10T12:13:00.929Z,1106.78
2022-11-10T12:14:00.921Z,1106.46
2022-11-10T12:15:00.928Z,1105.79
2022-11-10T12:16:00.925Z,1105.01
2022-11-10T12:17:00.981Z,1104.39
2022-11-10T12:18:00.923Z,1103.87
2022-11-10T12:19:00.987Z,1103.19
2022-11-10T12:20:00.936Z,1102.4
2022-11-10T12:21:00.938Z,1101.89